Terminal Aerodrome Forecast
Issued by NWS Shreveport, LA

Home | Current Version | Previous Version | Text Only | Print | Product List | Glossary On
Versions: 1 2 3 4 5 6 7 8 9 10 11 12 13 14 15 16 17 18 19 20 21 22 23 24 25 26 27 28 29
633
FTUS44 KSHV 190836 AAA
TAFMLU
TAF AMD
KMLU 190836Z 1909/2006 17004KT 5SM BR BKN004
     FM191000 17010KT P6SM OVC015
     FM191600 18012G20KT P6SM BKN035 BKN250
     FM200100 17008KT P6SM BKN025 OVC050=

USA.gov is the U.S. government's official web portal to all federal, state and local government web resources and services.